createdAt,value
2023-02-07T00:01:25.469Z,-0.34
2023-02-07T00:03:54.456Z,-0.62
2023-02-07T00:06:24.680Z,-0.48
2023-02-07T00:08:52.914Z,-0.46
2023-02-07T00:11:21.738Z,-0.16
2023-02-07T00:13:51.259Z,-0.13
2023-02-07T00:16:18.633Z,-0.55
2023-02-07T00:18:45.630Z,-0.42
2023-02-07T00:21:15.665Z,-0.43
2023-02-07T00:23:42.822Z,-0.40
2023-02-07T00:26:11.024Z,-0.27
2023-02-07T00:28:38.554Z,-0.06
2023-02-07T00:31:06.840Z,-0.27
2023-02-07T00:33:36.437Z,-0.21
2023-02-07T00:36:07.450Z,-0.46
2023-02-07T00:38:34.648Z,-0.34
2023-02-07T00:41:01.791Z,-0.23
2023-02-07T00:43:30.394Z,-0.46
2023-02-07T00:45:59.714Z,-0.29
2023-02-07T00:48:31.276Z,-0.24
2023-02-07T00:50:59.140Z,-0.15
2023-02-07T00:53:27.842Z,-0.28
2023-02-07T00:55:54.832Z,-0.16
2023-02-07T00:58:22.222Z,-0.24
2023-02-07T01:00:49.293Z,0.09
2023-02-07T01:03:17.135Z,0.10
2023-02-07T01:05:44.331Z,0.07
2023-02-07T01:08:11.667Z,0.00
2023-02-07T01:10:44.446Z,-0.26
2023-02-07T01:13:12.559Z,-0.33
2023-02-07T01:15:41.666Z,-0.36
2023-02-07T01:18:09.136Z,-0.56
2023-02-07T01:20:36.432Z,-0.69
2023-02-07T01:23:05.871Z,-0.80
2023-02-07T01:25:33.177Z,-0.36
2023-02-07T01:28:00.240Z,-0.27
2023-02-07T01:30:27.414Z,-0.45
2023-02-07T01:32:54.510Z,-0.68
2023-02-07T01:35:21.360Z,-0.58
2023-02-07T01:37:48.231Z,-0.70
2023-02-07T01:40:16.465Z,-0.84
2023-02-07T01:42:43.404Z,-0.74
2023-02-07T01:45:38.517Z,-0.65
2023-02-07T01:48:13.856Z,-0.66
2023-02-07T01:50:43.545Z,-0.47
2023-02-07T01:53:14.508Z,-0.71
2023-02-07T01:55:42.709Z,-0.52
2023-02-07T01:58:10.636Z,-0.64
2023-02-07T02:00:38.070Z,-0.79
2023-02-07T02:03:05.953Z,-0.72
2023-02-07T02:05:35.207Z,-0.95
2023-02-07T02:08:02.144Z,-0.78
2023-02-07T02:10:53.356Z,-0.86
2023-02-07T02:13:27.973Z,-0.22
2023-02-07T02:16:19.381Z,-0.34
2023-02-07T02:18:58.856Z,-0.42
2023-02-07T02:21:50.679Z,-0.24
2023-02-07T02:24:30.661Z,-0.18
2023-02-07T02:27:32.254Z,-0.39
2023-02-07T02:30:29.290Z,-0.51
2023-02-07T02:33:08.316Z,-0.67
2023-02-07T02:35:40.764Z,-0.84
2023-02-07T02:38:27.044Z,-0.68
2023-02-07T02:40:54.134Z,-0.84
2023-02-07T02:43:36.918Z,-0.89
2023-02-07T02:46:12.202Z,-0.90
2023-02-07T02:48:40.521Z,-0.86
2023-02-07T02:51:07.951Z,-0.92
2023-02-07T02:53:36.642Z,-0.87
2023-02-07T02:56:41.838Z,-0.77
2023-02-07T02:59:37.478Z,-0.74
2023-02-07T03:02:22.548Z,-0.84
2023-02-07T03:05:14.793Z,-0.79
2023-02-07T03:07:44.554Z,-0.39
2023-02-07T03:10:16.351Z,-0.73
2023-02-07T03:13:04.638Z,-0.80
2023-02-07T03:15:48.201Z,-0.91
2023-02-07T03:18:27.173Z,-1.04
2023-02-07T03:21:29.229Z,-1.12
2023-02-07T03:23:58.111Z,-0.96
2023-02-07T03:26:29.065Z,-0.91
2023-02-07T03:28:58.473Z,-0.94
2023-02-07T03:31:28.342Z,-1.03
2023-02-07T03:34:01.759Z,-0.94
2023-02-07T03:36:38.954Z,-0.83
2023-02-07T03:39:05.882Z,-0.92
2023-02-07T03:41:44.750Z,-0.80
2023-02-07T03:44:14.884Z,-0.91
2023-02-07T03:46:41.967Z,-0.88
2023-02-07T03:49:09.076Z,-0.79
2023-02-07T03:51:36.537Z,-0.90
2023-02-07T03:54:03.940Z,-1.16
2023-02-07T03:56:30.803Z,-0.82
2023-02-07T03:58:57.662Z,-0.93
2023-02-07T04:01:24.661Z,-0.79
2023-02-07T04:03:51.461Z,-0.93
2023-02-07T04:06:18.572Z,-1.00
2023-02-07T04:08:45.433Z,-0.96
2023-02-07T04:11:12.290Z,-1.30
2023-02-07T04:13:39.351Z,-1.31
2023-02-07T04:16:07.039Z,-1.14
2023-02-07T04:18:34.759Z,-1.07
2023-02-07T04:21:07.301Z,-0.93
2023-02-07T04:23:34.976Z,-0.98
2023-02-07T04:26:02.475Z,-1.10
2023-02-07T04:28:29.993Z,-1.20
2023-02-07T04:30:57.248Z,-1.33
2023-02-07T04:33:24.465Z,-1.39
2023-02-07T04:36:02.229Z,-1.15
2023-02-07T04:38:29.855Z,-0.74
2023-02-07T04:41:05.105Z,-0.94
2023-02-07T04:43:33.903Z,-1.29
2023-02-07T04:46:01.889Z,-1.37
2023-02-07T04:48:28.892Z,-0.96
2023-02-07T04:50:55.709Z,-1.03
2023-02-07T04:53:22.949Z,-1.07
2023-02-07T04:55:51.277Z,-0.95
2023-02-07T04:58:18.708Z,-1.42
2023-02-07T05:00:46.176Z,-1.60
2023-02-07T05:03:13.543Z,-1.46
2023-02-07T05:05:44.775Z,-1.77
2023-02-07T05:08:12.474Z,-1.84
2023-02-07T05:10:40.185Z,-1.82
2023-02-07T05:13:07.606Z,-1.89
2023-02-07T05:15:34.794Z,-1.61
2023-02-07T05:18:01.893Z,-1.48
2023-02-07T05:20:29.327Z,-1.51
2023-02-07T05:22:56.271Z,-1.62
2023-02-07T05:25:23.253Z,-1.71
2023-02-07T05:27:50.547Z,-1.83
2023-02-07T05:30:17.770Z,-1.66
2023-02-07T05:33:03.020Z,-1.69
2023-02-07T05:35:51.285Z,-1.69
2023-02-07T05:38:20.715Z,-1.17
2023-02-07T05:40:48.799Z,-0.41
2023-02-07T05:43:16.052Z,0.12
2023-02-07T05:45:43.064Z,0.48
2023-02-07T05:48:10.079Z,0.79
2023-02-07T05:50:37.282Z,1.00
2023-02-07T05:53:10.515Z,1.21
2023-02-07T05:55:38.108Z,1.34
2023-02-07T05:58:05.354Z,1.42
2023-02-07T06:00:32.457Z,1.48
2023-02-07T06:02:59.328Z,0.77
2023-02-07T06:05:31.619Z,0.69
2023-02-07T06:07:58.954Z,0.01
2023-02-07T06:10:26.062Z,0.61
2023-02-07T06:12:53.147Z,0.84
2023-02-07T06:15:20.034Z,1.34
2023-02-07T06:17:47.696Z,1.30
2023-02-07T06:20:14.777Z,1.47
2023-02-07T06:22:41.810Z,1.80
2023-02-07T06:25:11.960Z,1.55
2023-02-07T06:27:42.210Z,1.55
2023-02-07T06:30:11.195Z,1.74
2023-02-07T06:32:38.330Z,1.78
2023-02-07T06:35:06.231Z,2.12
2023-02-07T06:37:33.188Z,1.83
2023-02-07T06:40:00.094Z,2.44
2023-02-07T06:42:26.950Z,2.49
2023-02-07T06:44:53.770Z,2.15
2023-02-07T06:47:20.958Z,2.40
2023-02-07T06:49:47.820Z,2.64
2023-02-07T06:52:14.744Z,2.62
2023-02-07T06:54:42.137Z,2.68
2023-02-07T06:57:09.296Z,2.90
2023-02-07T06:59:36.393Z,3.17
2023-02-07T07:02:03.825Z,3.36
2023-02-07T07:04:31.321Z,3.57
2023-02-07T07:06:58.596Z,3.88
2023-02-07T07:09:26.443Z,4.04
2023-02-07T07:11:53.320Z,4.39
2023-02-07T07:14:20.254Z,4.69
2023-02-07T07:16:47.172Z,4.88
2023-02-07T07:19:14.332Z,4.88
2023-02-07T07:21:41.241Z,4.84
2023-02-07T07:24:08.287Z,4.83
2023-02-07T07:26:48.287Z,4.78
2023-02-07T07:29:16.254Z,5.07
2023-02-07T07:31:43.260Z,4.90
2023-02-07T07:34:10.115Z,4.74
2023-02-07T07:36:37.180Z,3.91
2023-02-07T07:39:04.833Z,3.78
2023-02-07T07:41:31.794Z,4.12
2023-02-07T07:43:58.672Z,4.55
2023-02-07T07:46:25.489Z,4.70
2023-02-07T07:48:52.952Z,4.52
2023-02-07T07:51:19.825Z,4.59
2023-02-07T07:53:46.991Z,4.66
2023-02-07T07:56:13.848Z,4.79
2023-02-07T07:58:40.690Z,4.86
2023-02-07T08:01:07.603Z,5.15
2023-02-07T08:03:34.967Z,4.95
2023-02-07T08:06:01.872Z,4.43
2023-02-07T08:08:28.796Z,4.81
2023-02-07T08:10:55.907Z,5.26
2023-02-07T08:13:23.349Z,5.67
2023-02-07T08:15:51.260Z,5.31
2023-02-07T08:18:18.174Z,5.31
2023-02-07T08:20:45.208Z,5.72
2023-02-07T08:23:12.095Z,6.24
2023-02-07T08:25:39.054Z,6.20
2023-02-07T08:28:06.102Z,6.18
2023-02-07T08:30:33.211Z,6.07
2023-02-07T08:33:00.115Z,5.96
2023-02-07T08:35:28.234Z,6.10
2023-02-07T08:37:56.051Z,6.17
2023-02-07T08:40:23.008Z,6.22
2023-02-07T08:42:49.843Z,6.18
2023-02-07T08:45:17.879Z,6.21
2023-02-07T08:47:45.547Z,6.47
2023-02-07T08:50:15.165Z,6.41
2023-02-07T08:52:42.327Z,5.99
2023-02-07T08:55:10.061Z,5.82
2023-02-07T08:57:37.097Z,5.90
2023-02-07T09:00:05.640Z,5.51
2023-02-07T09:02:32.912Z,5.38
2023-02-07T09:04:59.755Z,5.53
2023-02-07T09:07:26.581Z,5.93
2023-02-07T09:09:53.454Z,5.61
2023-02-07T09:12:20.373Z,5.25
2023-02-07T09:14:47.221Z,5.22
2023-02-07T09:17:14.164Z,5.65
2023-02-07T09:19:41.125Z,5.58
2023-02-07T09:22:07.964Z,5.88
2023-02-07T09:24:34.803Z,6.29
2023-02-07T09:27:02.063Z,6.52
2023-02-07T09:29:29.055Z,6.46
2023-02-07T09:31:56.156Z,5.27
2023-02-07T09:34:23.568Z,5.71
2023-02-07T09:36:50.393Z,6.63
2023-02-07T09:39:18.498Z,7.06
2023-02-07T09:42:09.502Z,7.03
2023-02-07T09:44:57.806Z,6.79
2023-02-07T09:47:26.024Z,7.07
2023-02-07T09:50:02.153Z,6.97
2023-02-07T09:52:35.944Z,7.35
2023-02-07T09:55:05.561Z,7.78
2023-02-07T09:57:46.259Z,7.79
2023-02-07T10:00:27.578Z,7.39
2023-02-07T10:02:59.146Z,7.52
2023-02-07T10:05:52.017Z,6.90
2023-02-07T10:08:20.067Z,6.72
2023-02-07T10:11:08.268Z,7.12
2023-02-07T10:14:10.498Z,6.47
2023-02-07T10:17:02.040Z,7.12
2023-02-07T10:20:04.203Z,7.19
2023-02-07T10:22:48.949Z,6.53
2023-02-07T10:25:37.288Z,6.78
2023-02-07T10:28:16.271Z,6.56
2023-02-07T10:30:51.688Z,6.28
2023-02-07T10:33:22.712Z,7.18
2023-02-07T10:35:51.342Z,6.58
2023-02-07T10:38:42.196Z,6.53
2023-02-07T10:41:20.615Z,6.90
2023-02-07T10:43:48.270Z,6.72
2023-02-07T10:46:20.529Z,7.08
2023-02-07T10:48:48.527Z,7.50
2023-02-07T10:51:38.722Z,7.72
2023-02-07T10:54:13.138Z,7.57
2023-02-07T10:56:53.580Z,7.03
2023-02-07T10:59:46.052Z,7.13
2023-02-07T11:02:31.813Z,7.72
2023-02-07T11:05:22.020Z,8.13
2023-02-07T11:08:05.738Z,7.21
2023-02-07T11:10:34.151Z,6.82
2023-02-07T11:13:03.131Z,6.81
2023-02-07T11:16:10.116Z,6.99
2023-02-07T11:18:39.025Z,6.83
2023-02-07T11:21:07.951Z,6.83
2023-02-07T11:23:35.082Z,7.38
2023-02-07T11:26:03.913Z,6.81
2023-02-07T11:28:32.874Z,7.07
2023-02-07T11:31:14.656Z,7.31
2023-02-07T11:33:42.489Z,7.60
2023-02-07T11:36:18.971Z,8.14
2023-02-07T11:38:57.352Z,7.63
2023-02-07T11:41:26.195Z,6.83
2023-02-07T11:44:14.957Z,7.36
2023-02-07T11:46:45.373Z,5.84
2023-02-07T11:49:45.520Z,6.36
2023-02-07T11:52:13.613Z,6.34
2023-02-07T11:54:42.989Z,6.10
2023-02-07T11:57:16.170Z,5.05
2023-02-07T12:00:01.567Z,5.98
2023-02-07T12:02:30.324Z,6.16
2023-02-07T12:05:28.473Z,6.37
2023-02-07T12:08:06.997Z,6.53
2023-02-07T12:10:38.932Z,6.22
2023-02-07T12:13:16.878Z,5.43
2023-02-07T12:15:55.401Z,5.60
2023-02-07T12:18:35.457Z,6.30
2023-02-07T12:21:14.476Z,6.28
2023-02-07T12:24:10.730Z,5.61
2023-02-07T12:26:43.578Z,5.37
2023-02-07T12:29:36.643Z,5.90
2023-02-07T12:32:41.084Z,6.33
2023-02-07T12:35:14.111Z,6.81
2023-02-07T12:38:01.753Z,6.71
2023-02-07T12:40:34.950Z,5.81
2023-02-07T12:43:11.207Z,5.81
2023-02-07T12:46:00.588Z,5.31
2023-02-07T12:49:08.089Z,5.29
2023-02-07T12:51:54.489Z,4.86
2023-02-07T12:54:46.159Z,4.71
2023-02-07T12:57:20.173Z,4.64
2023-02-07T12:59:47.083Z,3.93
2023-02-07T13:02:25.312Z,4.26
2023-02-07T13:04:57.349Z,4.59
2023-02-07T13:07:42.223Z,4.42
2023-02-07T13:10:36.539Z,3.73
2023-02-07T13:13:06.366Z,3.54
2023-02-07T13:15:45.331Z,3.61
2023-02-07T13:18:26.476Z,3.73
2023-02-07T13:21:08.771Z,3.65
2023-02-07T13:23:40.241Z,3.28
2023-02-07T13:26:16.841Z,3.42
2023-02-07T13:28:54.845Z,4.45
2023-02-07T13:31:44.749Z,4.79
2023-02-07T13:34:17.999Z,4.16
2023-02-07T13:36:49.136Z,3.70
2023-02-07T13:39:52.935Z,3.78
2023-02-07T13:42:42.746Z,3.83
2023-02-07T13:45:39.338Z,3.57
2023-02-07T13:48:32.896Z,3.54
2023-02-07T13:51:20.394Z,3.26
2023-02-07T13:53:55.635Z,3.50
2023-02-07T13:56:51.236Z,3.67
2023-02-07T13:59:38.608Z,3.29
2023-02-07T14:02:25.787Z,3.59
2023-02-07T14:04:56.478Z,3.81
2023-02-07T14:07:31.336Z,3.98
2023-02-07T14:09:59.262Z,3.84
2023-02-07T14:12:35.249Z,3.57
2023-02-07T14:15:42.045Z,3.50
2023-02-07T14:18:42.916Z,3.53
2023-02-07T14:21:22.902Z,3.49
2023-02-07T14:24:01.525Z,3.62
2023-02-07T14:26:40.559Z,3.65
2023-02-07T14:29:27.126Z,3.49
2023-02-07T14:31:58.725Z,3.30
2023-02-07T14:34:31.806Z,3.33
2023-02-07T14:37:00.612Z,3.71
2023-02-07T14:39:32.204Z,4.02
2023-02-07T14:42:11.809Z,4.13
2023-02-07T14:44:41.736Z,3.88
2023-02-07T14:47:21.906Z,3.77
2023-02-07T14:49:51.018Z,4.04
2023-02-07T14:52:26.034Z,3.74
2023-02-07T14:55:01.792Z,3.57
2023-02-07T14:57:49.019Z,3.57
2023-02-07T15:00:15.815Z,3.52
2023-02-07T15:02:50.600Z,3.42
2023-02-07T15:05:17.421Z,3.49
2023-02-07T15:07:47.015Z,3.10
2023-02-07T15:10:38.544Z,3.00
2023-02-07T15:13:15.272Z,2.99
2023-02-07T15:15:53.719Z,2.40
2023-02-07T15:18:22.109Z,2.25
2023-02-07T15:20:51.911Z,2.41
2023-02-07T15:23:19.643Z,2.34
2023-02-07T15:25:47.673Z,1.85
2023-02-07T15:28:28.044Z,1.93
2023-02-07T15:31:11.496Z,1.86
2023-02-07T15:33:41.311Z,2.14
2023-02-07T15:36:35.942Z,2.14
2023-02-07T15:39:07.745Z,1.95
2023-02-07T15:41:35.063Z,2.11
2023-02-07T15:44:07.293Z,2.38
2023-02-07T15:46:51.774Z,2.02
2023-02-07T15:49:27.498Z,1.82
2023-02-07T15:51:57.665Z,1.61
2023-02-07T15:54:27.747Z,1.54
2023-02-07T15:57:00.871Z,1.34
2023-02-07T15:59:30.908Z,1.33
2023-02-07T16:02:00.955Z,1.31
2023-02-07T16:04:30.879Z,1.24
2023-02-07T16:07:03.306Z,1.46
2023-02-07T16:09:48.026Z,1.43
2023-02-07T16:12:43.402Z,1.80
2023-02-07T16:15:33.194Z,2.19
2023-02-07T16:18:02.113Z,1.99
2023-02-07T16:20:31.150Z,1.90
2023-02-07T16:23:02.308Z,1.92
2023-02-07T16:25:36.735Z,1.89
2023-02-07T16:28:10.241Z,1.88
2023-02-07T16:30:38.669Z,1.72
2023-02-07T16:33:07.092Z,1.82
2023-02-07T16:35:33.936Z,2.08
2023-02-07T16:38:01.014Z,1.90
2023-02-07T16:40:27.854Z,2.09
2023-02-07T16:42:56.303Z,1.81
2023-02-07T16:45:26.930Z,1.58
2023-02-07T16:47:54.426Z,1.50
2023-02-07T16:50:24.089Z,1.41
2023-02-07T16:52:53.103Z,1.42
2023-02-07T16:55:21.382Z,1.51
2023-02-07T16:57:49.511Z,1.49
2023-02-07T17:00:22.375Z,1.69
2023-02-07T17:02:53.744Z,1.38
2023-02-07T17:05:24.134Z,1.46
2023-02-07T17:07:51.355Z,1.23
2023-02-07T17:10:31.066Z,1.02
2023-02-07T17:12:57.950Z,0.97
2023-02-07T17:15:24.767Z,0.92
2023-02-07T17:17:53.954Z,1.05
2023-02-07T17:20:21.226Z,1.04
2023-02-07T17:22:48.971Z,0.96
2023-02-07T17:25:17.100Z,0.79
2023-02-07T17:27:43.910Z,0.81
2023-02-07T17:30:16.189Z,0.93
2023-02-07T17:32:43.789Z,1.04
2023-02-07T17:35:10.725Z,0.89
2023-02-07T17:37:37.620Z,0.80
2023-02-07T17:40:15.224Z,0.79
2023-02-07T17:42:42.118Z,0.75
2023-02-07T17:45:09.238Z,0.67
2023-02-07T17:47:36.059Z,0.79
2023-02-07T17:50:04.606Z,0.78
2023-02-07T17:52:31.528Z,0.73
2023-02-07T17:54:58.338Z,0.63
2023-02-07T17:57:25.269Z,0.77
2023-02-07T17:59:52.104Z,0.62
2023-02-07T18:02:18.978Z,0.74
2023-02-07T18:04:45.867Z,0.79
2023-02-07T18:07:12.744Z,0.62
2023-02-07T18:09:39.605Z,0.56
2023-02-07T18:12:06.574Z,0.52
2023-02-07T18:14:33.442Z,0.98
2023-02-07T18:17:00.274Z,0.93
2023-02-07T18:19:28.727Z,0.59
2023-02-07T18:21:55.585Z,0.45
2023-02-07T18:24:22.431Z,0.42
2023-02-07T18:26:49.235Z,0.29
2023-02-07T18:29:16.615Z,0.53
2023-02-07T18:31:43.876Z,0.65
2023-02-07T18:34:10.728Z,0.91
2023-02-07T18:36:40.713Z,0.66
2023-02-07T18:39:09.091Z,0.61
2023-02-07T18:41:36.527Z,0.40
2023-02-07T18:44:04.439Z,0.77
2023-02-07T18:46:32.105Z,1.19
2023-02-07T18:48:59.430Z,1.38
2023-02-07T18:51:26.592Z,1.01
2023-02-07T18:53:56.210Z,0.63
2023-02-07T18:56:25.526Z,0.53
2023-02-07T18:58:59.112Z,0.67
2023-02-07T19:01:28.743Z,0.73
2023-02-07T19:03:58.430Z,0.79
2023-02-07T19:06:27.976Z,0.64
2023-02-07T19:08:55.633Z,0.55
2023-02-07T19:11:22.543Z,0.45
2023-02-07T19:13:49.613Z,0.46
2023-02-07T19:16:20.272Z,0.25
2023-02-07T19:18:48.590Z,0.60
2023-02-07T19:21:20.945Z,0.61
2023-02-07T19:23:47.948Z,0.66
2023-02-07T19:26:14.794Z,0.86
2023-02-07T19:28:41.815Z,0.74
2023-02-07T19:31:17.638Z,0.61
2023-02-07T19:33:45.704Z,0.73
2023-02-07T19:36:12.850Z,0.69
2023-02-07T19:38:39.964Z,0.77
2023-02-07T19:41:07.931Z,0.76
2023-02-07T19:43:35.994Z,0.72
2023-02-07T19:46:03.032Z,0.85
2023-02-07T19:48:29.835Z,0.97
2023-02-07T19:51:09.075Z,1.26
2023-02-07T19:53:36.083Z,1.05
2023-02-07T19:56:05.235Z,1.04
2023-02-07T19:58:33.770Z,0.72
2023-02-07T20:01:01.209Z,0.60
2023-02-07T20:03:29.079Z,0.81
2023-02-07T20:06:00.560Z,0.57
2023-02-07T20:08:28.488Z,0.69
2023-02-07T20:10:55.313Z,0.56
2023-02-07T20:13:22.198Z,0.52
2023-02-07T20:15:49.139Z,0.96
2023-02-07T20:18:16.067Z,1.19
2023-02-07T20:20:46.536Z,1.19
2023-02-07T20:23:14.750Z,0.96
2023-02-07T20:25:41.596Z,1.01
2023-02-07T20:28:08.932Z,0.69
2023-02-07T20:30:36.492Z,0.53
2023-02-07T20:33:03.521Z,0.38
2023-02-07T20:35:30.408Z,0.69
2023-02-07T20:37:57.277Z,1.02
2023-02-07T20:40:24.224Z,1.01
2023-02-07T20:42:51.114Z,1.19
2023-02-07T20:45:18.187Z,0.87
2023-02-07T20:47:44.979Z,0.76
2023-02-07T20:50:11.797Z,0.64
2023-02-07T20:52:38.712Z,0.62
2023-02-07T20:55:06.262Z,0.66
2023-02-07T20:57:33.375Z,0.81
2023-02-07T21:00:00.230Z,1.09
2023-02-07T21:02:27.113Z,1.08
2023-02-07T21:04:53.991Z,0.85
2023-02-07T21:07:20.911Z,1.00
2023-02-07T21:09:47.958Z,1.35
2023-02-07T21:12:15.129Z,1.41
2023-02-07T21:14:41.958Z,0.75
2023-02-07T21:17:09.091Z,0.60
2023-02-07T21:19:37.271Z,0.42
2023-02-07T21:22:05.161Z,0.29
2023-02-07T21:24:32.897Z,0.23
2023-02-07T21:26:59.828Z,0.35
2023-02-07T21:29:28.153Z,0.28
2023-02-07T21:31:55.791Z,0.57
2023-02-07T21:34:23.840Z,0.96
2023-02-07T21:36:50.790Z,1.22
2023-02-07T21:39:17.946Z,0.77
2023-02-07T21:41:46.588Z,0.50
2023-02-07T21:44:14.566Z,0.27
2023-02-07T21:46:43.124Z,0.20
2023-02-07T21:49:16.269Z,0.22
2023-02-07T21:51:45.953Z,0.55
2023-02-07T21:54:12.875Z,0.46
2023-02-07T21:56:41.898Z,0.38
2023-02-07T21:59:12.815Z,0.29
2023-02-07T22:01:40.316Z,0.40
2023-02-07T22:04:10.608Z,0.28
2023-02-07T22:06:41.887Z,0.50
2023-02-07T22:09:12.010Z,0.38
2023-02-07T22:11:39.120Z,0.87
2023-02-07T22:14:06.722Z,0.95
2023-02-07T22:16:34.482Z,0.76
2023-02-07T22:19:03.677Z,0.96
2023-02-07T22:21:33.327Z,1.06
2023-02-07T22:24:01.307Z,1.05
2023-02-07T22:26:28.809Z,1.14
2023-02-07T22:28:56.374Z,1.17
2023-02-07T22:31:26.411Z,0.58
2023-02-07T22:33:55.403Z,0.35
2023-02-07T22:36:27.350Z,0.13
2023-02-07T22:38:55.026Z,0.15
2023-02-07T22:41:22.203Z,0.41
2023-02-07T22:43:49.791Z,0.20
2023-02-07T22:46:19.200Z,-0.06
2023-02-07T22:48:46.989Z,-0.05
2023-02-07T22:51:35.445Z,0.02
2023-02-07T22:54:10.099Z,0.18
2023-02-07T22:56:38.364Z,-0.02
2023-02-07T22:59:06.747Z,-0.09
2023-02-07T23:01:39.046Z,-0.10
2023-02-07T23:04:15.415Z,-0.10
2023-02-07T23:06:42.538Z,0.18
2023-02-07T23:09:10.190Z,0.10
2023-02-07T23:11:37.786Z,0.15
2023-02-07T23:14:05.456Z,0.19
2023-02-07T23:16:33.660Z,0.24
2023-02-07T23:19:07.173Z,0.45
2023-02-07T23:21:34.143Z,0.47
2023-02-07T23:24:01.033Z,0.17
2023-02-07T23:26:28.023Z,0.09
2023-02-07T23:28:55.224Z,0.08
2023-02-07T23:31:24.128Z,0.25
2023-02-07T23:33:52.392Z,0.60
2023-02-07T23:36:19.871Z,0.53
2023-02-07T23:38:48.027Z,0.77
2023-02-07T23:41:15.615Z,0.99
2023-02-07T23:43:42.662Z,0.84
2023-02-07T23:46:10.212Z,0.68
2023-02-07T23:48:38.761Z,0.24
2023-02-07T23:51:06.912Z,0.08
2023-02-07T23:53:34.561Z,-0.02
2023-02-07T23:56:03.344Z,-0.27
2023-02-07T23:58:30.308Z,-0.12
